createdAt,value
2022-11-08T00:02:06.261Z,99972.00
2022-11-08T00:04:40.213Z,99979.00
2022-11-08T00:07:32.038Z,99987.00
2022-11-08T00:10:24.245Z,99982.00
2022-11-08T00:13:15.121Z,99982.00
2022-11-08T00:15:49.867Z,99984.00
2022-11-08T00:18:23.139Z,99971.00
2022-11-08T00:20:56.885Z,99986.00
2022-11-08T00:23:30.565Z,99986.00
2022-11-08T00:26:04.138Z,99973.00
2022-11-08T00:28:38.628Z,99985.00
2022-11-08T00:31:15.760Z,99970.00
2022-11-08T00:33:49.282Z,99983.00
2022-11-08T00:36:24.000Z,99981.00
2022-11-08T00:38:57.790Z,99968.00
2022-11-08T00:41:31.291Z,99977.00
2022-11-08T00:44:05.751Z,99984.00
2022-11-08T00:46:41.666Z,99983.00
2022-11-08T00:49:16.227Z,99974.00
2022-11-08T00:51:51.826Z,99933.00
2022-11-08T00:54:25.782Z,99964.00
2022-11-08T00:57:01.044Z,99989.00
2022-11-08T00:59:34.382Z,99979.00
2022-11-08T01:02:09.470Z,99969.00
2022-11-08T01:04:44.221Z,99981.00
2022-11-08T01:07:17.591Z,99977.00
2022-11-08T01:09:50.997Z,99965.00
2022-11-08T01:12:24.514Z,99980.00
2022-11-08T01:14:57.922Z,99971.00
2022-11-08T01:17:33.585Z,99979.00
2022-11-08T01:20:13.416Z,99965.00
2022-11-08T01:22:48.482Z,99975.00
2022-11-08T01:25:22.052Z,99981.00
2022-11-08T01:27:55.527Z,99959.00
2022-11-08T01:30:33.945Z,99961.00
2022-11-08T01:33:09.847Z,99928.00
2022-11-08T01:35:47.167Z,99953.00
2022-11-08T01:38:21.070Z,99948.00
2022-11-08T01:40:56.594Z,99950.00
2022-11-08T01:43:43.431Z,99949.00
2022-11-08T01:46:50.199Z,99937.00
2022-11-08T01:49:44.745Z,99941.00
2022-11-08T01:52:29.058Z,99935.00
2022-11-08T01:55:13.581Z,99934.00
2022-11-08T01:57:55.830Z,99885.00
2022-11-08T02:00:32.967Z,99927.00
2022-11-08T02:03:11.311Z,99933.00
2022-11-08T02:05:47.195Z,99928.00
2022-11-08T02:08:28.550Z,99920.00
2022-11-08T02:11:03.985Z,99926.00
2022-11-08T02:13:42.009Z,99920.00
2022-11-08T02:16:17.708Z,99924.00
2022-11-08T02:18:51.545Z,99916.00
2022-11-08T02:21:36.002Z,99882.00
2022-11-08T02:24:14.284Z,99918.00
2022-11-08T02:26:48.416Z,99913.00
2022-11-08T02:29:30.157Z,99911.00
2022-11-08T02:32:05.682Z,99900.00
2022-11-08T02:34:45.212Z,99889.00
2022-11-08T02:37:22.170Z,99906.00
2022-11-08T02:39:58.511Z,99900.00
2022-11-08T02:42:32.077Z,99899.00
2022-11-08T02:45:07.684Z,99893.00
2022-11-08T02:47:41.428Z,99902.00
2022-11-08T02:50:28.979Z,99895.00
2022-11-08T02:53:05.057Z,99877.00
2022-11-08T02:55:39.938Z,99895.00
2022-11-08T02:58:13.800Z,99888.00
2022-11-08T03:00:48.653Z,99876.00
2022-11-08T03:03:22.149Z,99876.00
2022-11-08T03:05:58.250Z,99874.00
2022-11-08T03:08:31.761Z,99865.00
2022-11-08T03:11:08.062Z,99863.00
2022-11-08T03:13:41.567Z,99859.00
2022-11-08T03:16:15.233Z,99853.00
2022-11-08T03:18:48.633Z,99858.00
2022-11-08T03:21:22.187Z,99853.00
2022-11-08T03:23:55.730Z,99855.00
2022-11-08T03:26:32.218Z,99840.00
2022-11-08T03:29:08.501Z,99854.00
2022-11-08T03:31:41.816Z,99852.00
2022-11-08T03:34:15.363Z,99845.00
2022-11-08T03:36:48.946Z,99826.00
2022-11-08T03:39:23.055Z,99819.00
2022-11-08T03:41:59.631Z,99833.00
2022-11-08T03:44:36.836Z,99821.00
2022-11-08T03:47:11.786Z,99797.00
2022-11-08T03:49:45.120Z,99804.00
2022-11-08T03:52:18.421Z,99813.00
2022-11-08T03:54:51.922Z,99813.00
2022-11-08T03:57:28.005Z,99811.00
2022-11-08T04:00:01.687Z,99806.00
2022-11-08T04:02:35.277Z,99798.00
2022-11-08T04:05:10.635Z,99801.00
2022-11-08T04:07:44.410Z,99778.00
2022-11-08T04:10:19.001Z,99813.00
2022-11-08T04:13:11.221Z,99792.00
2022-11-08T04:15:44.870Z,99800.00
2022-11-08T04:18:41.135Z,99801.00
2022-11-08T04:21:22.802Z,99790.00
2022-11-08T04:23:56.559Z,99793.00
2022-11-08T04:26:29.869Z,99790.00
2022-11-08T04:29:04.990Z,99763.00
2022-11-08T04:31:39.187Z,99782.00
2022-11-08T04:34:12.765Z,99783.00
2022-11-08T04:36:46.142Z,99788.00
2022-11-08T04:39:20.312Z,99786.00
2022-11-08T04:41:57.697Z,99789.00
2022-11-08T04:44:35.794Z,99785.00
2022-11-08T04:47:10.133Z,99767.00
2022-11-08T04:49:43.791Z,99761.00
2022-11-08T04:52:17.337Z,99765.00
2022-11-08T04:54:51.101Z,99762.00
2022-11-08T04:57:25.335Z,99760.00
2022-11-08T05:00:00.287Z,99759.00
2022-11-08T05:02:33.746Z,99755.00
2022-11-08T05:05:08.839Z,99756.00
2022-11-08T05:07:42.387Z,99761.00
2022-11-08T05:10:16.208Z,99745.00
2022-11-08T05:12:49.500Z,99732.00
2022-11-08T05:15:26.520Z,99716.00
2022-11-08T05:17:59.910Z,99691.00
2022-11-08T05:20:51.305Z,99729.00
2022-11-08T05:23:25.090Z,99724.00
2022-11-08T05:25:59.473Z,99714.00
2022-11-08T05:28:33.341Z,99714.00
2022-11-08T05:31:08.923Z,99705.00
2022-11-08T05:33:43.397Z,99700.00
2022-11-08T05:36:17.579Z,99684.00
2022-11-08T05:38:51.170Z,99673.00
2022-11-08T05:41:26.392Z,99674.00
2022-11-08T05:43:59.947Z,99662.00
2022-11-08T05:46:35.338Z,99626.00
2022-11-08T05:49:08.607Z,99672.00
2022-11-08T05:51:42.630Z,99670.00
2022-11-08T05:54:16.216Z,99660.00
2022-11-08T05:56:49.643Z,99657.00
2022-11-08T05:59:23.548Z,99652.00
2022-11-08T06:01:58.517Z,99664.00
2022-11-08T06:04:35.775Z,99648.00
2022-11-08T06:07:09.138Z,99623.00
2022-11-08T06:09:44.663Z,99647.00
2022-11-08T06:12:18.509Z,99612.00
2022-11-08T06:14:52.152Z,99627.00
2022-11-08T06:17:30.111Z,99647.00
2022-11-08T06:20:04.700Z,99621.00
2022-11-08T06:22:39.013Z,99623.00
2022-11-08T06:25:12.679Z,99617.00
2022-11-08T06:27:46.187Z,99615.00
2022-11-08T06:30:20.911Z,99592.00
2022-11-08T06:32:55.612Z,99595.00
2022-11-08T06:35:28.940Z,99601.00
2022-11-08T06:38:08.174Z,99593.00
2022-11-08T06:40:43.100Z,99602.00
2022-11-08T06:43:19.623Z,99598.00
2022-11-08T06:45:53.677Z,99601.00
2022-11-08T06:48:34.029Z,99606.00
2022-11-08T06:51:09.149Z,99569.00
2022-11-08T06:53:42.981Z,99603.00
2022-11-08T06:56:16.518Z,99601.00
2022-11-08T06:58:52.197Z,99598.00
2022-11-08T07:01:25.698Z,99606.00
2022-11-08T07:04:01.603Z,99588.00
2022-11-08T07:06:35.201Z,99592.00
2022-11-08T07:09:09.293Z,99578.00
2022-11-08T07:11:42.642Z,99606.00
2022-11-08T07:14:17.576Z,99597.00
2022-11-08T07:16:50.972Z,99607.00
2022-11-08T07:19:25.737Z,99613.00
2022-11-08T07:21:59.028Z,99630.00
2022-11-08T07:24:32.487Z,99618.00
2022-11-08T07:27:07.429Z,99621.00
2022-11-08T07:29:41.726Z,99626.00
2022-11-08T07:32:15.410Z,99631.00
2022-11-08T07:34:50.339Z,99634.00
2022-11-08T07:37:24.099Z,99625.00
2022-11-08T07:39:59.176Z,99581.00
2022-11-08T07:42:50.020Z,99620.00
2022-11-08T07:45:26.843Z,99609.00
2022-11-08T07:48:03.363Z,99613.00
2022-11-08T07:50:41.016Z,99574.00
2022-11-08T07:53:14.848Z,99616.00
2022-11-08T07:55:49.124Z,99615.00
2022-11-08T07:58:22.720Z,99613.00
2022-11-08T08:01:01.756Z,99605.00
2022-11-08T08:03:35.528Z,99609.00
2022-11-08T08:06:10.369Z,99601.00
2022-11-08T08:08:43.824Z,99619.00
2022-11-08T08:11:17.515Z,99606.00
2022-11-08T08:13:52.828Z,99616.00
2022-11-08T08:19:54.242Z,99627.00
2022-11-08T08:22:37.885Z,99649.00
2022-11-08T08:36:59.199Z,99633.00
2022-11-08T08:40:08.321Z,99650.00
2022-11-08T08:42:50.181Z,99603.00
2022-11-08T08:46:25.749Z,99518.00
2022-11-08T08:49:05.073Z,99565.00
2022-11-08T08:51:38.870Z,99630.00
2022-11-08T08:54:15.003Z,99607.00
2022-11-08T08:56:50.169Z,99611.00
2022-11-08T09:02:26.094Z,99482.00
2022-11-08T09:05:01.777Z,99617.00
2022-11-08T09:07:35.666Z,99616.00
2022-11-08T09:10:11.573Z,99608.00
2022-11-08T09:12:46.640Z,99600.00
2022-11-08T09:15:40.901Z,99610.00
2022-11-08T09:18:14.388Z,99623.00
2022-11-08T09:20:48.285Z,99619.00
2022-11-08T09:23:21.798Z,99618.00
2022-11-08T09:25:59.586Z,99606.00
2022-11-08T09:28:38.841Z,99646.00
2022-11-08T09:31:50.412Z,99639.00
2022-11-08T09:34:24.422Z,99639.00
2022-11-08T09:36:58.317Z,99647.00
2022-11-08T09:39:32.007Z,99582.00
2022-11-08T09:42:52.229Z,99643.00
2022-11-08T09:45:42.553Z,99643.00
2022-11-08T09:48:30.982Z,99650.00
2022-11-08T09:51:13.917Z,99650.00
2022-11-08T09:53:56.337Z,99631.00
2022-11-08T09:56:33.038Z,99652.00
2022-11-08T09:59:27.188Z,99653.00
2022-11-08T10:02:18.277Z,99556.00
2022-11-08T10:04:59.151Z,99614.00
2022-11-08T10:07:41.595Z,99630.00
2022-11-08T10:10:59.482Z,99613.00
2022-11-08T10:14:08.468Z,99528.00
2022-11-08T10:16:55.228Z,99549.00
2022-11-08T10:20:06.711Z,99472.00
2022-11-08T10:22:53.772Z,99535.00
2022-11-08T10:25:40.987Z,99508.00
2022-11-08T10:28:23.343Z,99599.00
2022-11-08T10:30:59.236Z,99516.00
2022-11-08T10:33:40.237Z,99510.00
2022-11-08T10:36:33.200Z,99462.00
2022-11-08T10:39:26.855Z,99492.00
2022-11-08T10:42:12.611Z,99583.00
2022-11-08T10:44:46.954Z,99527.00
2022-11-08T10:47:37.361Z,99504.00
2022-11-08T10:50:18.711Z,99620.00
2022-11-08T10:53:02.408Z,99555.00
2022-11-08T10:55:38.899Z,99436.00
2022-11-08T10:58:33.525Z,99580.00
2022-11-08T11:01:22.871Z,99545.00
2022-11-08T11:04:03.692Z,99572.00
2022-11-08T11:06:51.107Z,99612.00
2022-11-08T11:09:33.087Z,99586.00
2022-11-08T11:12:13.951Z,99538.00
2022-11-08T11:15:00.784Z,99591.00
2022-11-08T11:17:40.220Z,99533.00
2022-11-08T11:20:26.311Z,99564.00
2022-11-08T11:23:19.028Z,99561.00
2022-11-08T11:25:58.955Z,99554.00
2022-11-08T11:28:37.846Z,99550.00
2022-11-08T11:31:18.381Z,99537.00
2022-11-08T11:33:59.462Z,99527.00
2022-11-08T11:36:35.954Z,99552.00
2022-11-08T11:39:19.971Z,99569.00
2022-11-08T11:42:24.054Z,99570.00
2022-11-08T11:45:15.534Z,99470.00
2022-11-08T11:47:57.355Z,99501.00
2022-11-08T11:50:46.696Z,99556.00
2022-11-08T11:53:24.827Z,99489.00
2022-11-08T11:56:47.169Z,99538.00
2022-11-08T11:59:58.066Z,99582.00
2022-11-08T12:03:27.194Z,99552.00
2022-11-08T12:06:19.163Z,99544.00
2022-11-08T12:09:23.380Z,99574.00
2022-11-08T12:12:19.533Z,99461.00
2022-11-08T12:15:03.548Z,99513.00
2022-11-08T12:18:41.071Z,99543.00
2022-11-08T12:21:27.299Z,99552.00
2022-11-08T12:24:47.647Z,99451.00
2022-11-08T12:27:45.699Z,99595.00
2022-11-08T12:30:26.625Z,99481.00
2022-11-08T12:33:31.540Z,99550.00
2022-11-08T12:36:53.582Z,99555.00
2022-11-08T12:39:39.060Z,99538.00
2022-11-08T12:43:09.054Z,99565.00
2022-11-08T12:46:08.872Z,99510.00
2022-11-08T12:49:26.116Z,99489.00
2022-11-08T12:52:21.856Z,99595.00
2022-11-08T12:55:03.472Z,99548.00
2022-11-08T12:57:44.790Z,99570.00
2022-11-08T13:00:33.300Z,99527.00
2022-11-08T13:04:06.651Z,99560.00
2022-11-08T13:06:52.524Z,99545.00
2022-11-08T13:09:40.851Z,99568.00
2022-11-08T13:12:57.043Z,99590.00
2022-11-08T13:15:31.576Z,99561.00
2022-11-08T13:18:34.910Z,99539.00
2022-11-08T13:21:46.048Z,99449.00
2022-11-08T13:24:44.505Z,99528.00
2022-11-08T13:27:43.203Z,99517.00
2022-11-08T13:30:41.155Z,99469.00
2022-11-08T13:33:36.313Z,99522.00
2022-11-08T13:36:35.138Z,99488.00
2022-11-08T13:40:06.396Z,99492.00
2022-11-08T13:43:14.987Z,99503.00
2022-11-08T13:46:20.277Z,99437.00
2022-11-08T13:49:19.335Z,99499.00
2022-11-08T13:55:52.513Z,99509.00
2022-11-08T13:58:39.488Z,99503.00
2022-11-08T14:01:59.393Z,99501.00
2022-11-08T14:04:41.982Z,99523.00
2022-11-08T14:07:33.578Z,99508.00
2022-11-08T14:13:26.345Z,99482.00
2022-11-08T14:16:10.341Z,99483.00
2022-11-08T14:18:45.319Z,99492.00
2022-11-08T14:21:25.808Z,99414.00
2022-11-08T14:24:10.292Z,99519.00
2022-11-08T14:26:50.870Z,99357.00
2022-11-08T14:29:33.654Z,99440.00
2022-11-08T14:32:20.421Z,99504.00
2022-11-08T14:35:14.187Z,99394.00
2022-11-08T14:37:56.408Z,99422.00
2022-11-08T14:40:33.598Z,99488.00
2022-11-08T14:43:14.184Z,99386.00
2022-11-08T14:45:50.423Z,99488.00
2022-11-08T14:48:47.581Z,99492.00
2022-11-08T14:51:22.019Z,99482.00
2022-11-08T14:54:25.307Z,99421.00
2022-11-08T14:57:14.125Z,99412.00
2022-11-08T14:59:56.237Z,99453.00
2022-11-08T15:02:31.339Z,99488.00
2022-11-08T15:09:56.596Z,99477.00
2022-11-08T15:16:14.372Z,99496.00
2022-11-08T15:19:45.283Z,99448.00
2022-11-08T15:22:40.654Z,99525.00
2022-11-08T15:25:39.060Z,99493.00
2022-11-08T15:28:26.103Z,99506.00
2022-11-08T15:31:12.270Z,99406.00
2022-11-08T15:33:53.325Z,99460.00
2022-11-08T15:36:52.146Z,99478.00
2022-11-08T15:39:33.612Z,99443.00
2022-11-08T15:42:18.787Z,99360.00
2022-11-08T15:45:11.963Z,99490.00
2022-11-08T15:47:50.572Z,99368.00
2022-11-08T15:50:36.690Z,99475.00
2022-11-08T15:53:11.504Z,99515.00
2022-11-08T15:55:53.670Z,99503.00
2022-11-08T15:58:39.790Z,99475.00
2022-11-08T16:01:20.976Z,99423.00
2022-11-08T16:03:58.279Z,99449.00
2022-11-08T16:06:41.258Z,99430.00
2022-11-08T16:09:21.175Z,99392.00
2022-11-08T16:11:55.222Z,99451.00
2022-11-08T16:14:54.802Z,99391.00
2022-11-08T16:17:28.400Z,99492.00
2022-11-08T16:20:28.606Z,99472.00
2022-11-08T16:23:25.409Z,99439.00
2022-11-08T16:26:31.519Z,99372.00
2022-11-08T16:29:30.588Z,99461.00
2022-11-08T16:32:21.608Z,99338.00
2022-11-08T16:34:57.014Z,99471.00
2022-11-08T16:37:30.507Z,99485.00
2022-11-08T16:40:15.971Z,99471.00
2022-11-08T16:42:52.271Z,99463.00
2022-11-08T16:45:58.394Z,99468.00
2022-11-08T16:48:29.355Z,99471.00
2022-11-08T16:51:08.113Z,99478.00
2022-11-08T16:53:42.166Z,99467.00
2022-11-08T16:56:20.311Z,99468.00
2022-11-08T16:58:55.392Z,99457.00
2022-11-08T17:01:34.907Z,99483.00
2022-11-08T17:04:10.140Z,99469.00
2022-11-08T17:06:44.159Z,99487.00
2022-11-08T17:09:20.513Z,99477.00
2022-11-08T17:11:53.921Z,99452.00
2022-11-08T17:14:30.108Z,99482.00
2022-11-08T17:17:03.692Z,99460.00
2022-11-08T17:19:38.748Z,99467.00
2022-11-08T17:22:12.441Z,99468.00
2022-11-08T17:24:48.159Z,99484.00
2022-11-08T17:27:23.924Z,99449.00
2022-11-08T17:29:59.012Z,99459.00
2022-11-08T17:32:33.027Z,99473.00
2022-11-08T17:35:11.174Z,99489.00
2022-11-08T17:37:44.650Z,99477.00
2022-11-08T17:40:18.654Z,99463.00
2022-11-08T17:42:52.485Z,99481.00
2022-11-08T17:45:29.661Z,99469.00
2022-11-08T17:48:03.724Z,99480.00
2022-11-08T17:50:40.719Z,99481.00
2022-11-08T17:53:17.721Z,99427.00
2022-11-08T17:55:56.067Z,99466.00
2022-11-08T17:58:33.625Z,99472.00
2022-11-08T18:01:10.156Z,99473.00
2022-11-08T18:03:43.915Z,99482.00
2022-11-08T18:06:19.105Z,99458.00
2022-11-08T18:08:52.624Z,99468.00
2022-11-08T18:11:26.416Z,99463.00
2022-11-08T18:14:00.311Z,99463.00
2022-11-08T18:16:34.324Z,99451.00
2022-11-08T18:19:08.376Z,99464.00
2022-11-08T18:21:44.165Z,99412.00
2022-11-08T18:24:18.700Z,99487.00
2022-11-08T18:26:52.451Z,99439.00
2022-11-08T18:29:26.964Z,99452.00
2022-11-08T18:32:02.064Z,99437.00
2022-11-08T18:34:36.120Z,99438.00
2022-11-08T18:37:11.657Z,99453.00
2022-11-08T18:39:45.286Z,99449.00
2022-11-08T18:42:19.333Z,99463.00
2022-11-08T18:44:55.444Z,99468.00
2022-11-08T18:47:29.151Z,99462.00
2022-11-08T18:50:02.518Z,99464.00
2022-11-08T18:52:38.912Z,99432.00
2022-11-08T18:55:13.415Z,99400.00
2022-11-08T18:57:47.494Z,99455.00
2022-11-08T19:00:21.689Z,99469.00
2022-11-08T19:02:56.286Z,99465.00
2022-11-08T19:05:30.290Z,99455.00
2022-11-08T19:08:05.813Z,99456.00
2022-11-08T19:10:39.778Z,99456.00
2022-11-08T19:13:13.604Z,99451.00
2022-11-08T19:15:56.107Z,99470.00
2022-11-08T19:18:32.198Z,99477.00
2022-11-08T19:21:14.569Z,99453.00
2022-11-08T19:23:51.943Z,99476.00
2022-11-08T19:26:28.735Z,99487.00
2022-11-08T19:29:03.298Z,99473.00
2022-11-08T19:31:39.279Z,99470.00
2022-11-08T19:34:14.027Z,99496.00
2022-11-08T19:36:52.669Z,99474.00
2022-11-08T19:39:30.774Z,99445.00
2022-11-08T19:42:04.290Z,99459.00
2022-11-08T19:44:38.226Z,99487.00
2022-11-08T19:47:12.170Z,99489.00
2022-11-08T19:49:46.175Z,99466.00
2022-11-08T19:52:19.819Z,99482.00
2022-11-08T19:54:55.149Z,99480.00
2022-11-08T19:57:30.871Z,99490.00
2022-11-08T20:00:06.308Z,99506.00
2022-11-08T20:02:40.120Z,99484.00
2022-11-08T20:05:13.645Z,99467.00
2022-11-08T20:07:47.804Z,99485.00
2022-11-08T20:10:23.053Z,99491.00
2022-11-08T20:12:56.902Z,99485.00
2022-11-08T20:15:34.072Z,99498.00
2022-11-08T20:18:07.750Z,99500.00
2022-11-08T20:20:42.985Z,99496.00
2022-11-08T20:23:18.052Z,99491.00
2022-11-08T20:25:53.130Z,99489.00
2022-11-08T20:28:26.668Z,99458.00
2022-11-08T20:31:05.370Z,99495.00
2022-11-08T20:33:40.653Z,99510.00
2022-11-08T20:36:16.625Z,99514.00
2022-11-08T20:38:51.231Z,99507.00
2022-11-08T20:41:26.896Z,99451.00
2022-11-08T20:44:00.852Z,99496.00
2022-11-08T20:46:34.860Z,99499.00
2022-11-08T20:49:10.091Z,99516.00
2022-11-08T20:51:43.862Z,99524.00
2022-11-08T20:54:24.022Z,99495.00
2022-11-08T20:56:59.176Z,99514.00
2022-11-08T20:59:32.856Z,99500.00
2022-11-08T21:02:06.424Z,99534.00
2022-11-08T21:04:40.600Z,99503.00
2022-11-08T21:10:40.083Z,99503.00
2022-11-08T21:13:03.883Z,99509.00
2022-11-08T21:15:37.648Z,99499.00
2022-11-08T21:18:11.102Z,99512.00
2022-11-08T21:20:45.530Z,99460.00
2022-11-08T21:23:21.089Z,99477.00
2022-11-08T21:25:55.229Z,99523.00
2022-11-08T21:28:30.473Z,99510.00
2022-11-08T21:31:05.195Z,99497.00
2022-11-08T21:33:39.270Z,99527.00
2022-11-08T21:36:17.427Z,99518.00
2022-11-08T21:38:51.038Z,99530.00
2022-11-08T21:41:24.829Z,99525.00
2022-11-08T21:44:00.845Z,99472.00
2022-11-08T21:46:34.947Z,99495.00
2022-11-08T21:49:10.731Z,99537.00
2022-11-08T21:51:44.122Z,99526.00
2022-11-08T21:54:17.833Z,99537.00
2022-11-08T21:56:51.714Z,99523.00
2022-11-08T21:59:26.816Z,99512.00
2022-11-08T22:02:00.306Z,99529.00
2022-11-08T22:04:34.431Z,99540.00
2022-11-08T22:07:08.174Z,99504.00
2022-11-08T22:09:41.992Z,99523.00
2022-11-08T22:12:15.963Z,99473.00
2022-11-08T22:14:51.545Z,99543.00
2022-11-08T22:17:25.440Z,99550.00
2022-11-08T22:19:58.991Z,99549.00
2022-11-08T22:22:33.755Z,99536.00
2022-11-08T22:25:08.491Z,99534.00
2022-11-08T22:27:41.989Z,99537.00
2022-11-08T22:30:17.228Z,99543.00
2022-11-08T22:32:50.789Z,99527.00
2022-11-08T22:35:24.777Z,99541.00
2022-11-08T22:37:58.788Z,99511.00
2022-11-08T22:40:32.909Z,99533.00
2022-11-08T22:43:06.581Z,99524.00
2022-11-08T22:45:43.777Z,99541.00
2022-11-08T22:48:17.596Z,99522.00
2022-11-08T22:50:51.659Z,99521.00
2022-11-08T22:53:25.217Z,99529.00
2022-11-08T22:56:04.529Z,99523.00
2022-11-08T22:58:42.022Z,99522.00
2022-11-08T23:01:18.475Z,99513.00
2022-11-08T23:03:53.518Z,99493.00
2022-11-08T23:06:27.165Z,99531.00
2022-11-08T23:09:00.775Z,99469.00
2022-11-08T23:11:51.888Z,99546.00
2022-11-08T23:14:44.932Z,99519.00
2022-11-08T23:17:19.959Z,99511.00
2022-11-08T23:20:11.160Z,99482.00
2022-11-08T23:23:01.780Z,99532.00
2022-11-08T23:25:36.559Z,99547.00
2022-11-08T23:28:27.585Z,99530.00
2022-11-08T23:31:21.252Z,99530.00
2022-11-08T23:33:56.115Z,99491.00
2022-11-08T23:36:29.924Z,99525.00
2022-11-08T23:39:03.358Z,99539.00
2022-11-08T23:41:54.072Z,99536.00
2022-11-08T23:44:28.953Z,99534.00
2022-11-08T23:47:02.972Z,99521.00
2022-11-08T23:49:38.127Z,99526.00
2022-11-08T23:52:11.592Z,99516.00
2022-11-08T23:54:45.172Z,99531.00
2022-11-08T23:57:19.846Z,99534.00
2022-11-08T23:59:53.403Z,99528.00
